Time;durP1;ratioP1;P1;durP2;ratioP2;P2;SDS_P1;SDS_P2;PMS_P1;PMS_P2;Temp;Humidity;BMP_temperature;BMP_pressure;BME280_temperature;BME280_humidity;BME280_pressure;Samples;Min_cycle;Max_cycle;Signal;HPM_P1;HPM_P2
2021/06/06 00:00:40;;;;;;;21.13;13.75;;;15.80;99.90;;;;;;5086597;28;20164;-61
2021/06/06 00:03:07;;;;;;;21.85;12.70;;;15.80;99.90;;;;;;5086718;28;20172;-61
2021/06/06 00:05:45;;;;;;;25.17;14.23;;;15.80;99.90;;;;;;5083995;28;20192;-62
2021/06/06 00:08:11;;;;;;;21.45;13.90;;;15.70;99.90;;;;;;5086482;28;20171;-61
2021/06/06 00:10:37;;;;;;;20.70;13.02;;;15.50;99.90;;;;;;5086611;28;20156;-61
2021/06/06 00:13:03;;;;;;;20.65;13.27;;;15.60;99.90;;;;;;5085223;28;20168;-61
2021/06/06 00:15:29;;;;;;;18.38;13.48;;;15.50;99.90;;;;;;5083304;28;20171;-61
2021/06/06 00:17:55;;;;;;;25.27;13.93;;;15.60;99.90;;;;;;5085896;28;20232;-61
2021/06/06 00:20:21;;;;;;;33.45;14.88;;;15.70;99.90;;;;;;5085666;28;20168;-61
2021/06/06 00:22:46;;;;;;;20.30;13.90;;;15.60;99.90;;;;;;5086020;28;20255;-61
2021/06/06 00:25:13;;;;;;;16.38;12.90;;;15.40;99.90;;;;;;5083330;28;20545;-62
2021/06/06 00:27:40;;;;;;;22.15;12.88;;;15.50;99.90;;;;;;5086335;28;20156;-61
2021/06/06 00:30:07;;;;;;;19.80;12.80;;;15.50;99.90;;;;;;5085772;28;20186;-61
2021/06/06 00:32:34;;;;;;;19.05;13.43;;;15.40;99.90;;;;;;5085050;28;20164;-61
2021/06/06 00:34:59;;;;;;;21.95;13.98;;;15.40;99.90;;;;;;5082171;28;20164;-61
2021/06/06 00:37:25;;;;;;;27.20;14.10;;;15.30;99.90;;;;;;5086097;28;20332;-61
2021/06/06 00:39:51;;;;;;;20.55;13.50;;;15.30;99.90;;;;;;5085714;28;20168;-61
2021/06/06 00:42:21;;;;;;;29.13;15.25;;;15.30;99.90;;;;;;5086090;28;20161;-62
2021/06/06 00:44:47;;;;;;;27.60;15.63;;;15.40;99.90;;;;;;5083192;28;20172;-61
2021/06/06 00:47:13;;;;;;;22.85;15.43;;;15.50;99.90;;;;;;5085853;28;20230;-61
2021/06/06 00:49:38;;;;;;;24.75;16.40;;;15.50;99.90;;;;;;5085676;28;20204;-61
2021/06/06 00:52:05;;;;;;;25.08;17.00;;;15.30;99.90;;;;;;5086129;28;20228;-61
2021/06/06 00:54:36;;;;;;;24.63;16.17;;;15.20;99.90;;;;;;5083455;28;20319;-61
2021/06/06 00:57:24;;;;;;;26.58;16.75;;;15.30;99.90;;;;;;5085738;28;20202;-61
2021/06/06 01:00:20;;;;;;;20.63;15.85;;;15.30;99.90;;;;;;5085169;28;20563;-61
2021/06/06 01:02:47;;;;;;;22.05;17.05;;;15.20;99.90;;;;;;5085913;28;20168;-61
2021/06/06 01:05:28;;;;;;;23.42;15.75;;;15.20;99.90;;;;;;5082900;28;20171;-61
2021/06/06 01:07:55;;;;;;;25.80;17.05;;;15.20;99.90;;;;;;5085974;28;20210;-61
2021/06/06 01:10:21;;;;;;;20.38;16.10;;;15.30;99.90;;;;;;5085515;28;20168;-61
2021/06/06 01:12:52;;;;;;;25.13;18.25;;;15.50;99.90;;;;;;5085882;28;20168;-61
2021/06/06 01:15:35;;;;;;;28.05;17.77;;;15.70;99.90;;;;;;5082865;28;20167;-61
2021/06/06 01:18:20;;;;;;;31.35;18.92;;;15.80;99.90;;;;;;5085772;28;20171;-61
2021/06/06 01:21:12;;;;;;;32.58;18.65;;;15.70;99.90;;;;;;5085804;28;20164;-61
2021/06/06 01:23:54;;;;;;;31.50;19.60;;;15.70;99.90;;;;;;5085598;28;20189;-61
2021/06/06 01:27:00;;;;;;;31.27;18.75;;;15.70;99.90;;;;;;5082919;28;20669;-61
2021/06/06 01:29:32;;;;;;;30.52;19.77;;;15.60;99.90;;;;;;5085236;28;20168;-61
2021/06/06 01:32:05;;;;;;;34.28;19.90;;;15.60;99.90;;;;;;5085672;28;20202;-61
2021/06/06 01:34:33;;;;;;;35.88;20.10;;;15.60;99.90;;;;;;5082965;28;20763;-62
2021/06/06 01:37:08;;;;;;;28.77;19.65;;;15.40;99.90;;;;;;5085693;28;20164;-61
2021/06/06 01:39:39;;;;;;;35.22;20.33;;;15.30;99.90;;;;;;5085396;28;20254;-61
2021/06/06 01:42:16;;;;;;;28.52;17.73;;;15.20;99.90;;;;;;5085428;28;20677;-61
2021/06/06 01:44:47;;;;;;;31.25;19.70;;;15.10;99.90;;;;;;5082720;28;20467;-61
2021/06/06 01:47:18;;;;;;;35.05;21.35;;;15.10;99.90;;;;;;5085327;28;20222;-62
2021/06/06 01:50:06;;;;;;;41.17;26.92;;;15.30;99.90;;;;;;5085210;28;20208;-61
2021/06/06 01:52:35;;;;;;;37.30;25.38;;;15.50;99.90;;;;;;5085659;28;20217;-61
2021/06/06 01:55:06;;;;;;;39.72;26.25;;;15.30;99.90;;;;;;5081492;28;20168;-61
2021/06/06 01:57:32;;;;;;;42.97;27.50;;;14.90;99.90;;;;;;5085368;28;20614;-61
2021/06/06 02:00:00;;;;;;;45.28;28.70;;;14.60;99.90;;;;;;5084880;28;20168;-61
2021/06/06 02:02:26;;;;;;;42.90;29.88;;;14.80;99.90;;;;;;5088095;28;20160;-61
2021/06/06 02:04:53;;;;;;;47.83;30.88;;;15.00;99.90;;;;;;5086508;28;20168;-61
2021/06/06 02:07:28;;;;;;;43.83;31.83;;;15.00;99.90;;;;;;5089005;28;20191;-61
2021/06/06 02:10:05;;;;;;;46.22;32.60;;;15.00;99.90;;;;;;5088905;28;20159;-61
2021/06/06 02:12:32;;;;;;;54.15;33.05;;;15.10;99.90;;;;;;5089138;28;20164;-61
2021/06/06 02:15:00;;;;;;;47.28;33.85;;;14.90;99.90;;;;;;5084534;28;20182;-62
2021/06/06 02:17:30;;;;;;;40.92;32.05;;;14.70;99.90;;;;;;5088589;28;20172;-61
2021/06/06 02:19:58;;;;;;;46.85;34.05;;;14.70;99.90;;;;;;5088509;28;20180;-61
2021/06/06 02:22:24;;;;;;;50.55;33.63;;;14.70;99.90;;;;;;5088838;28;20163;-61
2021/06/06 02:24:50;;;;;;;48.90;32.53;;;14.50;99.90;;;;;;5086056;28;20391;-61
2021/06/06 02:27:41;;;;;;;51.72;33.55;;;14.70;99.90;;;;;;5088730;28;20192;-61
2021/06/06 02:30:10;;;;;;;56.95;34.90;;;14.70;99.90;;;;;;5087897;28;20243;-61
2021/06/06 02:32:55;;;;;;;45.90;32.70;;;14.40;99.90;;;;;;5088657;28;20160;-61
2021/06/06 02:35:43;;;;;;;44.45;33.67;;;14.30;99.90;;;;;;5085819;28;20215;-61
2021/06/06 02:38:17;;;;;;;49.72;34.08;;;14.30;99.90;;;;;;5087044;28;20171;-62
2021/06/06 02:40:51;;;;;;;57.60;36.67;;;14.40;99.90;;;;;;5088287;28;20168;-61
2021/06/06 02:43:32;;;;;;;54.55;36.28;;;14.20;99.90;;;;;;5088037;28;20206;-61
2021/06/06 02:46:00;;;;;;;61.70;40.65;;;14.40;99.90;;;;;;5085679;28;20644;-61
2021/06/06 02:48:33;;;;;;;56.63;38.92;;;14.40;99.90;;;;;;5087868;28;20190;-61
2021/06/06 02:51:03;;;;;;;60.13;39.58;;;14.40;99.90;;;;;;5087971;28;20579;-61
2021/06/06 02:53:32;;;;;;;52.10;36.67;;;14.30;99.90;;;;;;5088348;28;20148;-61
2021/06/06 02:56:02;;;;;;;54.15;36.97;;;14.30;99.90;;;;;;5085703;28;20421;-61
2021/06/06 02:58:35;;;;;;;49.65;35.35;;;14.10;99.90;;;;;;5087808;28;20180;-61
2021/06/06 03:01:29;;;;;;;58.20;34.75;;;14.10;99.90;;;;;;5088006;28;20202;-61
2021/06/06 03:03:56;;;;;;;48.13;33.45;;;14.00;99.90;;;;;;5087878;28;20243;-61
2021/06/06 03:06:37;;;;;;;51.47;35.50;;;13.90;99.90;;;;;;5085215;28;20188;-61
2021/06/06 03:09:09;;;;;;;61.40;38.28;;;14.10;99.90;;;;;;5087789;28;20182;-61
2021/06/06 03:11:36;;;;;;;66.60;41.08;;;14.10;99.90;;;;;;5087896;28;20212;-61
2021/06/06 03:14:09;;;;;;;63.63;39.15;;;14.10;99.90;;;;;;5086264;28;20168;-61
2021/06/06 03:16:38;;;;;;;59.70;38.85;;;14.10;99.90;;;;;;5085768;28;20164;-61
2021/06/06 03:19:05;;;;;;;54.13;36.65;;;13.90;99.90;;;;;;5087661;28;20629;-61
2021/06/06 03:21:38;;;;;;;54.25;36.67;;;13.70;99.90;;;;;;5087678;28;20238;-61
2021/06/06 03:24:06;;;;;;;51.65;36.30;;;13.60;99.90;;;;;;5086428;28;20168;-61
2021/06/06 03:26:35;;;;;;;49.13;36.35;;;13.70;99.90;;;;;;5085512;28;20188;-61
2021/06/06 03:29:04;;;;;;;56.47;37.03;;;13.80;99.90;;;;;;5087217;28;20164;-61
2021/06/06 03:31:33;;;;;;;55.95;35.13;;;13.60;99.90;;;;;;5087423;28;20164;-61
2021/06/06 03:34:01;;;;;;;51.85;35.22;;;13.50;99.90;;;;;;5087737;28;20591;-61
2021/06/06 03:36:29;;;;;;;63.83;38.67;;;13.50;99.90;;;;;;5084922;28;20168;-61
2021/06/06 03:38:57;;;;;;;58.50;39.67;;;13.60;99.90;;;;;;5087307;28;20168;-61
2021/06/06 03:41:25;;;;;;;65.40;41.83;;;13.80;99.90;;;;;;5087237;28;20178;-61
2021/06/06 03:43:51;;;;;;;68.20;41.95;;;14.00;99.90;;;;;;5086814;28;20164;-61
2021/06/06 03:46:18;;;;;;;63.97;41.30;;;14.10;99.90;;;;;;5084590;28;20210;-61
2021/06/06 03:48:45;;;;;;;61.53;40.60;;;13.90;99.90;;;;;;5087157;28;20258;-61
2021/06/06 03:51:10;;;;;;;62.42;41.28;;;13.70;99.90;;;;;;5086836;28;20211;-61
2021/06/06 03:53:37;;;;;;;62.40;40.53;;;13.60;99.90;;;;;;5087128;28;20171;-61
2021/06/06 03:56:05;;;;;;;57.53;38.20;;;13.70;99.90;;;;;;5084403;28;20168;-61
2021/06/06 03:58:30;;;;;;;53.30;39.58;;;13.60;99.90;;;;;;5086443;28;20198;-61
2021/06/06 04:00:56;;;;;;;57.17;38.90;;;13.50;99.90;;;;;;5086758;28;20163;-61
2021/06/06 04:03:22;;;;;;;62.28;38.67;;;13.40;99.90;;;;;;5086530;28;20164;-61
2021/06/06 04:05:49;;;;;;;50.08;37.17;;;13.40;99.90;;;;;;5084131;28;20192;-61
2021/06/06 04:08:15;;;;;;;57.13;39.08;;;13.50;99.90;;;;;;5086519;28;20160;-61
2021/06/06 04:10:41;;;;;;;51.63;37.25;;;13.70;99.90;;;;;;5086532;28;20168;-61
2021/06/06 04:13:07;;;;;;;57.88;38.05;;;13.60;99.90;;;;;;5086464;28;20167;-60
2021/06/06 04:15:33;;;;;;;51.58;36.90;;;13.60;99.90;;;;;;5082650;28;20179;-61
2021/06/06 04:18:12;;;;;;;56.50;37.67;;;13.50;99.90;;;;;;5086436;28;20163;-61
2021/06/06 04:20:39;;;;;;;61.00;39.53;;;13.70;99.90;;;;;;5086420;28;20176;-61
2021/06/06 04:23:05;;;;;;;67.00;41.72;;;13.90;99.90;;;;;;5086703;28;20164;-62
2021/06/06 04:25:30;;;;;;;59.50;41.03;;;14.00;99.90;;;;;;5083391;28;20188;-61
2021/06/06 04:27:56;;;;;;;59.70;39.90;;;13.80;99.90;;;;;;5085994;28;20633;-61
2021/06/06 04:30:22;;;;;;;63.60;41.63;;;13.70;99.90;;;;;;5086039;28;20661;-61
2021/06/06 04:32:48;;;;;;;66.25;43.65;;;13.70;99.90;;;;;;5086294;28;20168;-61
2021/06/06 04:35:14;;;;;;;63.28;42.97;;;13.80;99.90;;;;;;5083278;28;20195;-61
2021/06/06 04:37:40;;;;;;;60.75;41.08;;;13.80;99.90;;;;;;5085967;28;20164;-61
2021/06/06 04:40:08;;;;;;;59.65;39.55;;;13.90;99.90;;;;;;5086047;28;20266;-61
2021/06/06 04:42:33;;;;;;;55.67;39.95;;;13.90;99.90;;;;;;5086162;28;20167;-61
2021/06/06 04:44:59;;;;;;;65.22;43.08;;;13.90;99.90;;;;;;5082880;28;20204;-61
2021/06/06 04:47:24;;;;;;;66.03;45.60;;;14.10;99.90;;;;;;5085597;28;20475;-61
2021/06/06 04:49:50;;;;;;;68.53;48.00;;;14.20;99.90;;;;;;5085651;28;20208;-61
2021/06/06 04:52:18;;;;;;;74.93;47.33;;;14.30;99.90;;;;;;5085907;28;20163;-61
2021/06/06 04:54:44;;;;;;;78.68;48.90;;;14.30;99.90;;;;;;5083362;28;20160;-61
2021/06/06 04:57:10;;;;;;;79.93;50.65;;;14.20;99.90;;;;;;5085739;28;20175;-61
2021/06/06 04:59:37;;;;;;;77.65;49.85;;;14.10;99.90;;;;;;5085485;28;20260;-61
2021/06/06 05:02:09;;;;;;;78.90;48.58;;;14.10;99.90;;;;;;5085973;28;20163;-61
2021/06/06 05:04:35;;;;;;;72.90;45.83;;;14.10;99.90;;;;;;5083268;28;20170;-61
2021/06/06 05:07:01;;;;;;;72.47;46.80;;;14.10;99.90;;;;;;5085762;28;20238;-61
2021/06/06 05:09:27;;;;;;;74.57;47.38;;;14.30;99.90;;;;;;5084268;28;20258;-61
2021/06/06 05:11:52;;;;;;;75.68;46.88;;;14.50;99.90;;;;;;5085775;28;20156;-61
2021/06/06 05:14:19;;;;;;;70.00;45.95;;;14.60;99.90;;;;;;5083965;28;20213;-62
2021/06/06 05:16:45;;;;;;;69.93;45.15;;;14.60;99.90;;;;;;5084602;28;20164;-63
2021/06/06 05:19:11;;;;;;;70.47;45.13;;;14.60;99.90;;;;;;5085312;28;20172;-61
2021/06/06 05:21:36;;;;;;;73.10;42.72;;;14.60;99.90;;;;;;5086031;28;20167;-61
2021/06/06 05:24:03;;;;;;;66.22;42.38;;;14.70;99.90;;;;;;5085657;28;20199;-61
2021/06/06 05:26:29;;;;;;;60.85;42.55;;;14.70;99.90;;;;;;5082798;28;20258;-61
2021/06/06 05:28:55;;;;;;;71.35;44.10;;;14.80;99.90;;;;;;5085234;28;20183;-61
2021/06/06 05:31:21;;;;;;;70.63;44.25;;;14.90;99.90;;;;;;5085441;28;20167;-61
2021/06/06 05:33:48;;;;;;;69.82;43.88;;;14.80;99.90;;;;;;5085566;28;20153;-61
2021/06/06 05:36:13;;;;;;;69.32;44.25;;;15.00;99.90;;;;;;5083598;28;20170;-61
2021/06/06 05:38:40;;;;;;;60.95;41.78;;;14.90;99.90;;;;;;5089461;28;20227;-61
2021/06/06 05:41:06;;;;;;;60.75;42.13;;;14.90;99.90;;;;;;5089419;28;20581;-63
2021/06/06 05:43:32;;;;;;;68.55;42.22;;;14.80;99.90;;;;;;5089152;28;20235;-61
2021/06/06 05:45:59;;;;;;;64.35;40.20;;;15.00;99.90;;;;;;5086722;28;20188;-61
2021/06/06 05:48:25;;;;;;;63.28;37.97;;;15.20;99.90;;;;;;5089254;28;20539;-61
2021/06/06 05:50:56;;;;;;;66.60;39.88;;;15.40;99.90;;;;;;5088898;28;20630;-61
2021/06/06 05:53:22;;;;;;;68.00;39.83;;;15.40;99.90;;;;;;5089194;28;20196;-61
2021/06/06 05:55:48;;;;;;;67.28;40.92;;;15.70;99.90;;;;;;5086545;28;20171;-61
2021/06/06 05:58:17;;;;;;;61.45;37.38;;;15.50;99.90;;;;;;5088881;28;20160;-61
2021/06/06 06:00:45;;;;;;;63.00;38.20;;;15.40;99.90;;;;;;5087672;28;20218;-61
2021/06/06 06:03:11;;;;;;;63.55;36.67;;;15.30;99.90;;;;;;5088759;28;20175;-61
2021/06/06 06:05:37;;;;;;;67.65;40.00;;;15.50;99.90;;;;;;5086396;28;20246;-61
2021/06/06 06:08:34;;;;;;;64.75;37.35;;;15.60;99.90;;;;;;5089059;28;20183;-61
2021/06/06 06:11:03;;;;;;;58.17;36.42;;;15.70;99.90;;;;;;5088207;28;20251;-61
2021/06/06 06:13:30;;;;;;;57.70;36.65;;;15.60;99.90;;;;;;5088322;28;20227;-61
2021/06/06 06:15:57;;;;;;;61.70;36.70;;;16.00;99.90;;;;;;5086251;28;20270;-61
2021/06/06 06:18:26;;;;;;;57.38;37.28;;;16.00;99.90;;;;;;5088586;28;20163;-61
2021/06/06 06:20:52;;;;;;;58.85;37.25;;;16.00;99.90;;;;;;5088301;28;20167;-61
2021/06/06 06:23:18;;;;;;;63.17;38.40;;;16.00;99.90;;;;;;5088524;28;20224;-61
2021/06/06 06:25:44;;;;;;;60.20;39.25;;;16.10;99.90;;;;;;5085945;28;20199;-61
2021/06/06 06:28:10;;;;;;;66.45;37.72;;;16.10;99.90;;;;;;5088119;28;20168;-61
2021/06/06 06:30:38;;;;;;;61.88;37.22;;;16.10;99.90;;;;;;5088369;28;20179;-60
2021/06/06 06:33:05;;;;;;;68.03;37.92;;;16.40;99.90;;;;;;5088570;28;20176;-61
2021/06/06 06:35:33;;;;;;;55.55;34.47;;;16.20;99.90;;;;;;5086093;28;20243;-61
2021/06/06 06:37:59;;;;;;;56.17;35.05;;;16.10;99.90;;;;;;5088436;28;20183;-61
2021/06/06 06:40:25;;;;;;;51.38;34.33;;;16.00;99.90;;;;;;5088056;28;20156;-61
2021/06/06 06:42:51;;;;;;;47.92;32.38;;;16.10;99.90;;;;;;5088284;28;20160;-61
2021/06/06 06:45:21;;;;;;;44.78;29.73;;;16.10;99.90;;;;;;5083882;28;20178;-62
2021/06/06 06:47:47;;;;;;;48.80;30.77;;;15.90;99.90;;;;;;5087784;28;20162;-62
2021/06/06 06:50:16;;;;;;;45.50;30.27;;;15.90;99.90;;;;;;5087251;28;20208;-62
2021/06/06 06:52:42;;;;;;;46.38;29.65;;;16.10;99.90;;;;;;5088035;28;20178;-62
2021/06/06 06:55:15;;;;;;;36.85;21.50;;;16.20;99.90;;;;;;5085098;28;20160;-62
2021/06/06 06:57:41;;;;;;;30.25;21.98;;;16.20;99.90;;;;;;5088028;28;20156;-62
2021/06/06 07:00:15;;;;;;;34.15;22.48;;;16.40;99.90;;;;;;5087193;28;20175;-62
2021/06/06 07:02:41;;;;;;;32.67;22.17;;;16.70;99.90;;;;;;5088093;28;20190;-62
2021/06/06 07:05:08;;;;;;;35.08;22.27;;;16.70;99.90;;;;;;5084923;28;20521;-62
2021/06/06 07:07:34;;;;;;;27.15;20.38;;;16.70;99.90;;;;;;5087628;28;20199;-62
2021/06/06 07:10:01;;;;;;;31.83;24.77;;;16.90;99.90;;;;;;5086416;28;20413;-62
2021/06/06 07:12:27;;;;;;;32.30;22.10;;;17.30;99.90;;;;;;5087514;28;20211;-62
2021/06/06 07:14:52;;;;;;;31.55;23.10;;;17.40;99.90;;;;;;5084941;28;20641;-62
2021/06/06 07:17:18;;;;;;;29.65;20.55;;;17.50;99.90;;;;;;5087489;28;20250;-62
2021/06/06 07:19:44;;;;;;;32.22;21.25;;;17.50;99.90;;;;;;5087633;28;20179;-62
2021/06/06 07:22:10;;;;;;;27.25;20.13;;;17.60;99.90;;;;;;5087197;28;20179;-62
2021/06/06 07:24:36;;;;;;;27.10;19.88;;;17.50;99.90;;;;;;5084801;28;20184;-62
2021/06/06 07:27:02;;;;;;;27.73;20.45;;;17.40;99.90;;;;;;5087400;28;20199;-62
2021/06/06 07:29:31;;;;;;;23.88;18.65;;;17.50;99.90;;;;;;5086706;28;20250;-62
2021/06/06 07:31:58;;;;;;;22.30;17.65;;;17.70;99.90;;;;;;5086036;28;20153;-62
2021/06/06 07:34:26;;;;;;;23.65;17.58;;;17.70;99.90;;;;;;5085169;28;20152;-62
2021/06/06 07:36:53;;;;;;;22.15;17.25;;;17.70;99.90;;;;;;5087268;28;20160;-62
2021/06/06 07:39:19;;;;;;;20.75;17.88;;;17.80;99.90;;;;;;5086799;28;20180;-62
2021/06/06 07:41:45;;;;;;;25.73;18.65;;;17.90;99.90;;;;;;5086880;28;20153;-62
2021/06/06 07:44:11;;;;;;;20.30;16.02;;;18.00;99.90;;;;;;5084893;28;20710;-62
2021/06/06 07:46:36;;;;;;;17.20;14.77;;;18.00;99.90;;;;;;5085136;28;20206;-63
2021/06/06 07:49:03;;;;;;;21.73;15.77;;;18.00;99.90;;;;;;5086621;28;20579;-62
2021/06/06 07:51:29;;;;;;;23.67;15.80;;;18.20;99.90;;;;;;5086713;28;20178;-62
2021/06/06 07:53:55;;;;;;;20.52;16.02;;;18.10;99.90;;;;;;5086956;28;20152;-62
2021/06/06 07:56:22;;;;;;;18.67;15.02;;;18.10;99.90;;;;;;5084146;28;20251;-62
2021/06/06 07:58:47;;;;;;;19.52;14.57;;;18.00;99.90;;;;;;5084464;28;20516;-62
2021/06/06 08:01:13;;;;;;;22.70;15.10;;;18.20;99.90;;;;;;5086160;28;20183;-62
2021/06/06 08:03:39;;;;;;;21.63;14.60;;;18.20;99.90;;;;;;5086373;28;20172;-61
2021/06/06 08:06:07;;;;;;;18.65;14.00;;;18.40;99.90;;;;;;5083978;28;20188;-62
2021/06/06 08:08:33;;;;;;;13.00;10.98;;;18.50;99.90;;;;;;5086511;28;20164;-61
2021/06/06 08:11:02;;;;;;;15.18;12.07;;;18.00;99.90;;;;;;5086025;28;20166;-62
2021/06/06 08:13:28;;;;;;;14.45;11.95;;;17.80;99.90;;;;;;5085995;28;20180;-62
2021/06/06 08:15:56;;;;;;;21.08;12.55;;;17.70;99.90;;;;;;5083896;28;20601;-62
2021/06/06 08:18:29;;;;;;;14.32;11.95;;;17.90;99.90;;;;;;5084968;28;20164;-62
2021/06/06 08:21:04;;;;;;;13.23;11.52;;;18.20;99.90;;;;;;5086242;28;20273;-62
2021/06/06 08:23:30;;;;;;;15.27;13.48;;;18.50;99.90;;;;;;5086252;28;20628;-62
2021/06/06 08:25:57;;;;;;;20.23;13.93;;;18.70;99.90;;;;;;5083382;28;20187;-62
2021/06/06 08:28:23;;;;;;;16.35;13.40;;;18.70;99.90;;;;;;5085923;28;20291;-62
2021/06/06 08:30:53;;;;;;;15.98;14.00;;;18.90;99.90;;;;;;5085648;28;20563;-62
2021/06/06 08:33:21;;;;;;;17.45;14.05;;;19.00;99.90;;;;;;5085978;28;20177;-62
2021/06/06 08:35:47;;;;;;;22.08;14.52;;;19.00;99.90;;;;;;5083407;28;20172;-62
2021/06/06 08:38:13;;;;;;;16.05;12.40;;;18.70;99.90;;;;;;5086085;28;20164;-62
2021/06/06 08:40:46;;;;;;;12.18;10.68;;;18.60;99.90;;;;;;5084511;28;20171;-62
2021/06/06 08:43:13;;;;;;;19.55;12.07;;;18.60;99.90;;;;;;5085368;28;20175;-62
2021/06/06 08:45:59;;;;;;;14.20;11.10;;;18.80;99.90;;;;;;5083389;28;20255;-62
2021/06/06 08:48:28;;;;;;;16.48;13.40;;;19.00;99.90;;;;;;5085816;28;20167;-62
2021/06/06 08:51:32;;;;;;;15.52;12.80;;;19.00;99.90;;;;;;5085488;28;20223;-61
2021/06/06 08:54:21;;;;;;;12.90;11.35;;;19.20;99.90;;;;;;5063607;28;20704;-61
2021/06/06 08:56:52;;;;;;;12.90;10.90;;;19.20;99.90;;;;;;5062383;28;20192;-61
2021/06/06 08:59:22;;;;;;;12.73;9.82;;;18.80;99.90;;;;;;5063058;28;20188;-61
2021/06/06 09:02:03;;;;;;;13.07;9.07;;;18.80;99.90;;;;;;5063507;28;20268;-61
2021/06/06 09:04:35;;;;;;;15.85;10.23;;;19.00;99.90;;;;;;5043838;28;20176;-62
2021/06/06 09:07:11;;;;;;;11.43;10.23;;;19.20;99.90;;;;;;5063504;28;20232;-62
2021/06/06 09:09:42;;;;;;;13.85;10.20;;;19.20;99.90;;;;;;5063073;28;20171;-61
2021/06/06 09:12:17;;;;;;;9.73;8.23;;;19.20;99.90;;;;;;5062874;28;20232;-61
2021/06/06 09:14:43;;;;;;;11.75;8.70;;;19.30;99.90;;;;;;5060221;28;20175;-61
2021/06/06 09:17:15;;;;;;;11.25;10.00;;;19.40;99.90;;;;;;5045971;28;20165;-61
2021/06/06 09:19:50;;;;;;;9.75;8.80;;;19.60;99.90;;;;;;5062442;28;20183;-61
2021/06/06 09:22:40;;;;;;;13.48;9.93;;;19.70;99.90;;;;;;5062859;28;20168;-61
2021/06/06 09:25:18;;;;;;;18.67;10.95;;;19.60;99.90;;;;;;5043675;28;20184;-61
2021/06/06 09:27:44;;;;;;;10.13;9.07;;;19.30;99.90;;;;;;5063171;28;20192;-61
2021/06/06 09:30:21;;;;;;;7.88;7.18;;;19.40;99.90;;;;;;5049581;28;20191;-61
2021/06/06 09:32:47;;;;;;;12.27;7.78;;;19.80;99.90;;;;;;5085380;28;20166;-61
2021/06/06 09:35:26;;;;;;;13.43;9.23;;;20.10;99.90;;;;;;5082678;28;20164;-61
2021/06/06 09:38:06;;;;;;;12.20;9.43;;;20.10;99.90;;;;;;5084391;28;20175;-61
2021/06/06 09:40:35;;;;;;;11.70;9.43;;;20.20;99.90;;;;;;5084547;28;20179;-61
2021/06/06 09:43:01;;;;;;;9.48;8.05;;;20.10;99.90;;;;;;5085229;28;20171;-61
2021/06/06 09:45:32;;;;;;;9.52;8.57;;;20.20;99.90;;;;;;5082129;28;20179;-62
2021/06/06 09:48:16;;;;;;;9.35;8.40;;;20.30;99.90;;;;;;5085161;28;20152;-61
2021/06/06 09:50:43;;;;;;;11.57;8.43;;;20.50;99.90;;;;;;5084857;28;20270;-61
2021/06/06 09:53:23;;;;;;;10.65;8.30;;;20.40;99.90;;;;;;5085034;28;20165;-61
2021/06/06 09:55:50;;;;;;;14.05;9.38;;;20.60;99.90;;;;;;5082563;28;20164;-61
2021/06/06 09:58:25;;;;;;;11.35;7.93;;;20.40;99.90;;;;;;5083876;28;20213;-60
2021/06/06 10:00:58;;;;;;;9.30;7.68;;;20.50;99.90;;;;;;5084879;28;20211;-61
2021/06/06 10:03:28;;;;;;;9.90;7.07;;;20.70;99.90;;;;;;5085169;28;20171;-60
2021/06/06 10:06:14;;;;;;;9.38;7.53;;;20.90;99.90;;;;;;5082501;28;20243;-60
2021/06/06 10:08:42;;;;;;;6.00;5.50;;;21.20;99.90;;;;;;5085156;28;20239;-61
2021/06/06 10:11:12;;;;;;;7.50;6.68;;;21.30;99.90;;;;;;5084658;28;20160;-61
2021/06/06 10:13:42;;;;;;;7.40;6.35;;;21.50;99.90;;;;;;5085096;28;20174;-60
2021/06/06 10:16:12;;;;;;;7.80;7.00;;;21.60;99.90;;;;;;5082253;28;20247;-60
2021/06/06 10:18:45;;;;;;;6.95;6.35;;;21.10;99.90;;;;;;5084952;28;20164;-61
2021/06/06 10:21:18;;;;;;;8.35;7.55;;;21.20;99.90;;;;;;5084602;28;20251;-61
2021/06/06 10:24:18;;;;;;;8.32;7.53;;;21.40;99.90;;;;;;5087731;28;20168;-61
2021/06/06 10:26:57;;;;;;;8.05;7.25;;;21.30;99.90;;;;;;5083809;28;20325;-61
2021/06/06 10:29:28;;;;;;;7.50;6.00;;;21.30;99.90;;;;;;5087312;28;20198;-62
2021/06/06 10:31:58;;;;;;;9.88;6.18;;;21.60;99.90;;;;;;5088055;28;20156;-59
2021/06/06 10:34:26;;;;;;;9.60;6.35;;;21.70;99.90;;;;;;5086142;28;20160;-59
2021/06/06 10:36:52;;;;;;;6.45;5.90;;;21.40;99.90;;;;;;5088416;28;20160;-59
2021/06/06 10:39:26;;;;;;;6.63;6.00;;;21.70;99.90;;;;;;5088113;28;20190;-59
2021/06/06 10:41:54;;;;;;;7.82;5.80;;;22.00;99.90;;;;;;5086842;28;20286;-59
2021/06/06 10:44:43;;;;;;;8.05;7.25;;;22.30;99.90;;;;;;5086351;28;20190;-59
2021/06/06 10:47:31;;;;;;;6.47;5.80;;;22.50;99.90;;;;;;5087631;28;20188;-59
2021/06/06 10:50:11;;;;;;;6.22;5.63;;;22.70;99.90;;;;;;5065483;28;20208;-59
2021/06/06 10:52:38;;;;;;;8.65;4.78;;;22.70;99.90;;;;;;5065706;28;20172;-59
2021/06/06 10:55:22;;;;;;;5.15;4.00;;;22.30;99.90;;;;;;5063168;28;20173;-59
2021/06/06 10:57:48;;;;;;;4.05;3.42;;;22.50;99.90;;;;;;5065687;28;20211;-59
2021/06/06 11:00:34;;;;;;;6.68;2.95;;;22.70;99.90;;;;;;5064932;28;20200;-60
2021/06/06 11:03:23;;;;;;;3.70;3.40;;;22.70;99.90;;;;;;5065659;28;20230;-59
2021/06/06 11:05:53;;;;;;;4.68;2.83;;;22.80;99.90;;;;;;5062576;28;20230;-59
2021/06/06 11:08:27;;;;;;;4.15;2.85;;;22.70;99.90;;;;;;5065283;28;20192;-59
2021/06/06 11:11:13;;;;;;;4.88;2.25;;;22.80;99.90;;;;;;5065141;28;20192;-59
2021/06/06 11:13:42;;;;;;;2.67;2.33;;;22.80;99.90;;;;;;5064699;28;20212;-60
2021/06/06 11:16:16;;;;;;;3.67;2.50;;;23.00;99.90;;;;;;5062319;28;20161;-60
2021/06/06 11:18:49;;;;;;;2.67;2.13;;;23.20;99.90;;;;;;5065143;28;20172;-60
2021/06/06 11:21:27;;;;;;;4.20;2.40;;;23.40;99.90;;;;;;5064691;28;20635;-60
2021/06/06 11:23:57;;;;;;;3.50;2.13;;;23.70;99.90;;;;;;5065025;28;20169;-61
2021/06/06 11:26:34;;;;;;;1.98;1.60;;;23.80;99.90;;;;;;5068370;28;20261;-60
2021/06/06 11:29:22;;;;;;;2.90;1.80;;;23.60;99.90;;;;;;5086980;28;20174;-60
2021/06/06 11:32:12;;;;;;;2.90;1.85;;;23.70;99.90;;;;;;5069510;28;20191;-61
2021/06/06 11:35:02;;;;;;;2.92;1.38;;;23.50;99.90;;;;;;5083558;28;20156;-60
2021/06/06 11:37:28;;;;;;;2.95;1.73;;;23.60;99.90;;;;;;5084115;28;20180;-60
2021/06/06 11:39:55;;;;;;;2.03;1.50;;;24.00;99.90;;;;;;5086970;28;20669;-60
2021/06/06 11:42:36;;;;;;;4.43;1.45;;;24.30;99.90;;;;;;5085905;28;20160;-60
2021/06/06 11:45:17;;;;;;;3.13;1.90;;;24.50;99.90;;;;;;5084033;28;20206;-60
2021/06/06 11:47:53;;;;;;;4.50;2.80;;;24.70;99.90;;;;;;5086850;28;20325;-60
2021/06/06 11:50:22;;;;;;;3.15;1.70;;;24.50;99.90;;;;;;5085139;28;20215;-60
2021/06/06 11:53:07;;;;;;;5.63;1.75;;;24.00;99.90;;;;;;5086361;28;20164;-60
2021/06/06 11:55:45;;;;;;;1.70;1.60;;;24.30;99.90;;;;;;5082822;28;20164;-60
2021/06/06 11:58:35;;;;;;;2.30;1.65;;;24.40;99.90;;;;;;5086753;28;20159;-61
2021/06/06 12:01:14;;;;;;;1.85;1.70;;;24.30;99.90;;;;;;5086325;28;20650;-61
2021/06/06 12:03:43;;;;;;;3.50;1.90;;;24.40;99.90;;;;;;5086355;28;20168;-61
2021/06/06 12:06:13;;;;;;;4.28;1.45;;;24.70;99.90;;;;;;5083630;28;20580;-61
2021/06/06 12:08:44;;;;;;;2.15;1.90;;;24.60;99.90;;;;;;5085349;28;20680;-61
2021/06/06 12:11:21;;;;;;;2.58;1.85;;;25.00;99.90;;;;;;5086317;28;20156;-61
2021/06/06 12:13:49;;;;;;;2.08;1.58;;;25.00;99.90;;;;;;5085472;28;20160;-61
2021/06/06 12:16:27;;;;;;;3.83;1.73;;;25.10;99.90;;;;;;5083256;28;20160;-61
2021/06/06 12:19:07;;;;;;;5.40;1.70;;;25.30;99.90;;;;;;5086467;28;20259;-61
2021/06/06 12:21:38;;;;;;;3.13;1.88;;;25.30;99.90;;;;;;5086285;28;20175;-61
2021/06/06 12:24:15;;;;;;;3.22;1.90;;;24.90;99.90;;;;;;5085527;28;20209;-61
2021/06/06 12:26:48;;;;;;;1.40;1.30;;;24.40;99.90;;;;;;5084195;28;20195;-61
2021/06/06 12:29:14;;;;;;;3.38;1.65;;;24.60;99.90;;;;;;5083105;28;20188;-61
2021/06/06 12:31:46;;;;;;;1.23;0.90;;;25.00;99.90;;;;;;5086002;28;20168;-61
2021/06/06 12:34:31;;;;;;;1.48;0.70;;;25.30;99.90;;;;;;5084778;28;20164;-62
2021/06/06 12:37:00;;;;;;;1.27;0.70;;;25.60;99.90;;;;;;5085984;28;20190;-61
2021/06/06 12:39:27;;;;;;;1.73;0.90;;;25.80;99.90;;;;;;5086094;28;20255;-61
2021/06/06 12:41:55;;;;;;;1.35;0.80;;;26.00;99.90;;;;;;5084601;28;20176;-61
2021/06/06 12:44:26;;;;;;;2.53;1.27;;;26.10;99.90;;;;;;5084096;28;20197;-62
2021/06/06 12:46:52;;;;;;;1.58;0.90;;;26.10;99.90;;;;;;5085498;28;20194;-61
2021/06/06 12:49:32;;;;;;;1.58;0.88;;;26.20;99.90;;;;;;5085580;28;20223;-61
2021/06/06 12:52:02;;;;;;;1.48;0.70;;;25.90;99.90;;;;;;5086103;28;20180;-61